createdAt,value
2023-03-16T00:00:40.162Z,93.90
2023-03-16T00:03:07.280Z,96.00
2023-03-16T00:05:34.260Z,97.50
2023-03-16T00:08:01.222Z,96.60
2023-03-16T00:10:30.995Z,95.60
2023-03-16T00:13:00.163Z,95.50
2023-03-16T00:15:27.292Z,93.90
2023-03-16T00:17:57.630Z,94.60
2023-03-16T00:20:24.704Z,94.40
2023-03-16T00:22:51.688Z,93.00
2023-03-16T00:25:19.582Z,92.60
2023-03-16T00:27:46.566Z,92.50
2023-03-16T00:30:13.869Z,94.10
2023-03-16T00:32:41.765Z,93.40
2023-03-16T00:35:09.892Z,92.20
2023-03-16T00:37:37.636Z,91.70
2023-03-16T00:40:07.879Z,91.40
2023-03-16T00:42:35.098Z,94.60
2023-03-16T00:45:02.444Z,93.90
2023-03-16T00:47:34.124Z,95.80
2023-03-16T00:50:02.460Z,93.50
2023-03-16T00:52:30.309Z,92.80
2023-03-16T00:54:57.373Z,92.80
2023-03-16T00:57:27.734Z,91.40
2023-03-16T00:59:54.905Z,91.60
2023-03-16T01:02:25.852Z,91.90
2023-03-16T01:04:54.654Z,90.30
2023-03-16T01:07:22.978Z,89.30
2023-03-16T01:09:50.181Z,89.40
2023-03-16T01:12:20.148Z,89.40
2023-03-16T01:14:48.140Z,89.20
2023-03-16T01:17:17.568Z,89.10
2023-03-16T01:19:46.003Z,89.00
2023-03-16T01:22:14.614Z,88.50
2023-03-16T01:24:45.185Z,87.80
2023-03-16T01:27:13.441Z,88.30
2023-03-16T01:29:43.501Z,87.90
2023-03-16T01:32:10.869Z,88.00
2023-03-16T01:34:38.344Z,87.80
2023-03-16T01:37:05.489Z,89.40
2023-03-16T01:39:32.441Z,90.50
2023-03-16T01:41:59.593Z,90.00
2023-03-16T01:44:30.600Z,89.80
2023-03-16T01:46:58.244Z,89.70
2023-03-16T01:49:38.593Z,90.80
2023-03-16T01:52:16.678Z,92.10
2023-03-16T01:55:15.855Z,90.70
2023-03-16T01:57:47.706Z,90.30
2023-03-16T02:00:23.421Z,89.90
2023-03-16T02:02:59.926Z,90.30
2023-03-16T02:05:42.404Z,89.30
2023-03-16T02:08:12.334Z,89.40
2023-03-16T02:10:41.132Z,88.90
2023-03-16T02:13:09.535Z,89.00
2023-03-16T02:15:36.723Z,88.60
2023-03-16T02:18:07.609Z,87.80
2023-03-16T02:20:48.789Z,87.80
2023-03-16T02:23:24.180Z,86.60
2023-03-16T02:26:33.333Z,87.50
2023-03-16T02:29:45.921Z,87.40
2023-03-16T02:32:16.244Z,88.00
2023-03-16T02:34:43.851Z,87.10
2023-03-16T02:37:12.138Z,87.40
2023-03-16T02:39:39.186Z,87.00
2023-03-16T02:42:10.891Z,86.20
2023-03-16T02:44:40.841Z,85.70
2023-03-16T02:47:24.708Z,86.00
2023-03-16T02:49:51.980Z,84.60
2023-03-16T02:52:19.008Z,85.60
2023-03-16T02:54:45.854Z,83.80
2023-03-16T02:57:12.999Z,82.90
2023-03-16T02:59:39.963Z,81.80
2023-03-16T03:02:08.863Z,82.60
2023-03-16T03:04:36.652Z,83.20
2023-03-16T03:07:04.944Z,83.80
2023-03-16T03:09:33.190Z,84.00
2023-03-16T03:12:00.383Z,84.20
2023-03-16T03:14:28.512Z,84.60
2023-03-16T03:16:57.034Z,85.00
2023-03-16T03:19:24.019Z,85.20
2023-03-16T03:21:51.475Z,87.90
2023-03-16T03:24:18.848Z,88.50
2023-03-16T03:26:45.753Z,89.50
2023-03-16T03:29:12.748Z,91.20
2023-03-16T03:31:40.376Z,90.80
2023-03-16T03:34:07.439Z,90.80
2023-03-16T03:36:35.396Z,91.20
2023-03-16T03:39:05.687Z,91.10
2023-03-16T03:41:34.110Z,91.80
2023-03-16T03:44:01.446Z,91.70
2023-03-16T03:46:28.748Z,92.50
2023-03-16T03:48:55.895Z,92.20
2023-03-16T03:51:22.869Z,93.40
2023-03-16T03:53:50.258Z,93.10
2023-03-16T03:56:17.273Z,93.40
2023-03-16T03:58:44.207Z,94.70
2023-03-16T04:01:11.504Z,93.70
2023-03-16T04:03:38.508Z,93.80
2023-03-16T04:06:07.987Z,93.80
2023-03-16T04:08:36.031Z,94.60
2023-03-16T04:11:03.209Z,93.60
2023-03-16T04:13:30.173Z,94.50
2023-03-16T04:15:59.350Z,95.10
2023-03-16T04:18:26.342Z,95.30
2023-03-16T04:20:53.234Z,95.80
2023-03-16T04:23:21.994Z,96.90
2023-03-16T04:25:49.236Z,97.10
2023-03-16T04:28:17.822Z,97.10
2023-03-16T04:30:44.845Z,98.70
2023-03-16T04:33:11.939Z,98.30
2023-03-16T04:35:38.947Z,99.20
2023-03-16T04:38:06.143Z,99.60
2023-03-16T04:40:33.534Z,99.90
2023-03-16T04:43:00.466Z,99.90
2023-03-16T04:45:27.327Z,99.90
2023-03-16T04:47:54.496Z,99.90
2023-03-16T04:50:22.657Z,99.90
2023-03-16T04:52:49.812Z,99.90
2023-03-16T04:55:17.311Z,99.90
2023-03-16T04:57:44.216Z,99.90
2023-03-16T05:00:19.116Z,99.90
2023-03-16T05:02:51.969Z,99.90
2023-03-16T05:05:19.909Z,99.90
2023-03-16T05:07:47.987Z,99.90
2023-03-16T05:10:22.075Z,99.90
2023-03-16T05:12:49.172Z,99.90
2023-03-16T05:15:16.254Z,99.90
2023-03-16T05:17:44.057Z,99.90
2023-03-16T05:20:16.043Z,99.90
2023-03-16T05:22:46.448Z,99.40
2023-03-16T05:25:17.113Z,99.10
2023-03-16T05:27:51.979Z,98.80
2023-03-16T05:30:20.223Z,97.90
2023-03-16T05:32:47.781Z,98.10
2023-03-16T05:35:14.986Z,97.80
2023-03-16T05:37:43.769Z,98.70
2023-03-16T05:40:17.692Z,99.20
2023-03-16T05:42:48.479Z,97.90
2023-03-16T05:45:18.341Z,97.70
2023-03-16T05:47:45.463Z,98.00
2023-03-16T05:50:16.948Z,98.10
2023-03-16T05:52:46.348Z,97.30
2023-03-16T05:55:16.725Z,97.10
2023-03-16T05:57:44.369Z,97.10
2023-03-16T06:00:16.192Z,95.20
2023-03-16T06:02:51.443Z,95.00
2023-03-16T06:05:25.204Z,95.90
2023-03-16T06:07:52.674Z,94.60
2023-03-16T06:10:20.152Z,93.40
2023-03-16T06:12:47.406Z,92.40
2023-03-16T06:15:14.429Z,90.30
2023-03-16T06:17:42.219Z,89.20
2023-03-16T06:20:13.325Z,85.70
2023-03-16T06:22:43.330Z,84.70
2023-03-16T06:25:13.572Z,83.60
2023-03-16T06:27:40.795Z,83.70
2023-03-16T06:30:12.225Z,82.90
2023-03-16T06:32:44.352Z,82.20
2023-03-16T06:35:13.537Z,81.30
2023-03-16T06:37:41.096Z,82.60
2023-03-16T06:40:09.897Z,84.20
2023-03-16T06:42:36.817Z,85.00
2023-03-16T06:45:04.539Z,84.90
2023-03-16T06:47:32.372Z,84.30
2023-03-16T06:49:59.357Z,84.60
2023-03-16T06:52:26.328Z,84.10
2023-03-16T06:54:53.284Z,83.40
2023-03-16T06:57:20.448Z,83.20
2023-03-16T06:59:47.459Z,82.90
2023-03-16T07:02:14.961Z,83.80
2023-03-16T07:04:42.333Z,83.50
2023-03-16T07:07:11.692Z,83.30
2023-03-16T07:09:41.634Z,82.20
2023-03-16T07:12:10.256Z,81.20
2023-03-16T07:14:37.760Z,80.90
2023-03-16T07:17:04.996Z,79.50
2023-03-16T07:19:32.324Z,77.80
2023-03-16T07:21:59.522Z,76.10
2023-03-16T07:24:26.579Z,75.00
2023-03-16T07:26:54.416Z,73.40
2023-03-16T07:29:21.919Z,71.30
2023-03-16T07:31:49.178Z,70.90
2023-03-16T07:34:16.502Z,68.60
2023-03-16T07:36:43.829Z,67.00
2023-03-16T07:39:14.271Z,66.50
2023-03-16T07:41:41.722Z,67.50
2023-03-16T07:44:08.674Z,67.10
2023-03-16T07:46:35.657Z,67.00
2023-03-16T07:49:03.084Z,67.80
2023-03-16T07:51:30.047Z,67.30
2023-03-16T07:53:56.975Z,67.40
2023-03-16T07:56:23.987Z,67.70
2023-03-16T07:58:51.344Z,67.20
2023-03-16T08:01:18.229Z,65.40
2023-03-16T08:06:32.701Z,61.70
2023-03-16T08:09:00.326Z,60.50
2023-03-16T08:11:27.198Z,60.40
2023-03-16T08:13:56.353Z,58.60
2023-03-16T08:16:27.650Z,58.30
2023-03-16T08:18:58.317Z,58.90
2023-03-16T08:21:25.504Z,57.70
2023-03-16T08:23:53.465Z,57.40
2023-03-16T08:26:24.095Z,57.50
2023-03-16T08:28:52.777Z,57.90
2023-03-16T08:31:23.552Z,57.50
2023-03-16T08:33:51.766Z,56.80
2023-03-16T08:36:21.534Z,57.00
2023-03-16T08:39:05.595Z,56.00
2023-03-16T08:41:34.641Z,56.70
2023-03-16T08:44:03.097Z,55.70
2023-03-16T08:46:30.760Z,55.10
2023-03-16T08:48:57.760Z,54.40
2023-03-16T08:51:24.989Z,54.80
2023-03-16T08:53:52.787Z,55.20
2023-03-16T08:56:19.925Z,54.50
2023-03-16T08:58:47.339Z,55.00
2023-03-16T09:01:22.216Z,55.30
2023-03-16T09:03:51.321Z,54.50
2023-03-16T09:06:18.871Z,53.80
2023-03-16T09:08:47.606Z,53.70
2023-03-16T09:11:21.195Z,53.00
2023-03-16T09:13:51.142Z,53.30
2023-03-16T09:16:20.067Z,51.30
2023-03-16T09:18:47.899Z,51.00
2023-03-16T09:21:15.095Z,52.30
2023-03-16T09:23:43.088Z,51.20
2023-03-16T09:26:12.684Z,50.10
2023-03-16T09:28:42.887Z,50.00
2023-03-16T09:31:18.463Z,49.30
2023-03-16T09:33:46.541Z,48.10
2023-03-16T09:36:15.587Z,48.80
2023-03-16T09:38:43.869Z,47.50
2023-03-16T09:42:31.325Z,48.50
2023-03-16T09:45:45.543Z,47.90
2023-03-16T09:48:16.943Z,46.20
2023-03-16T09:50:49.186Z,47.00
2023-03-16T09:53:29.334Z,46.80
2023-03-16T09:56:10.072Z,46.80
2023-03-16T09:58:38.065Z,46.30
2023-03-16T10:01:41.277Z,45.80
2023-03-16T10:04:48.850Z,45.80
2023-03-16T10:07:38.102Z,45.20
2023-03-16T10:10:49.358Z,45.40
2023-03-16T10:13:56.874Z,45.10
2023-03-16T10:16:46.988Z,44.30
2023-03-16T10:19:41.301Z,43.50
2023-03-16T10:22:33.847Z,43.70
2023-03-16T10:25:50.542Z,40.20
2023-03-16T10:28:28.523Z,41.40
2023-03-16T10:31:02.134Z,39.20
2023-03-16T10:33:36.629Z,38.30
2023-03-16T10:36:32.080Z,37.90
2023-03-16T10:39:11.488Z,39.60
2023-03-16T10:41:47.823Z,38.70
2023-03-16T10:44:27.060Z,40.20
2023-03-16T10:47:06.191Z,39.20
2023-03-16T10:49:42.151Z,40.30
2023-03-16T10:52:48.039Z,40.90
2023-03-16T10:55:31.212Z,40.10
2023-03-16T10:58:01.144Z,40.20
2023-03-16T11:00:36.971Z,40.80
2023-03-16T11:03:41.649Z,40.80
2023-03-16T11:06:30.935Z,40.50
2023-03-16T11:09:21.179Z,38.80
2023-03-16T11:11:50.214Z,39.60
2023-03-16T11:14:26.609Z,39.90
2023-03-16T11:17:16.054Z,39.50
2023-03-16T11:20:00.488Z,39.80
2023-03-16T11:22:30.084Z,37.60
2023-03-16T11:25:04.063Z,38.40
2023-03-16T11:28:15.702Z,37.90
2023-03-16T11:31:42.871Z,37.50
2023-03-16T11:34:20.094Z,39.10
2023-03-16T11:37:31.067Z,40.00
2023-03-16T11:40:15.577Z,38.30
2023-03-16T11:43:23.846Z,38.10
2023-03-16T11:46:13.934Z,38.80
2023-03-16T11:49:12.080Z,38.10
2023-03-16T11:52:22.779Z,38.50
2023-03-16T11:55:43.029Z,38.60
2023-03-16T11:58:43.666Z,37.70
2023-03-16T12:02:32.804Z,39.10
2023-03-16T12:05:53.148Z,38.60
2023-03-16T12:09:04.642Z,38.30
2023-03-16T12:11:53.844Z,38.50
2023-03-16T12:14:45.698Z,39.00
2023-03-16T12:17:32.240Z,40.10
2023-03-16T12:20:27.370Z,38.70
2023-03-16T12:23:14.885Z,37.60
2023-03-16T12:25:48.516Z,37.00
2023-03-16T12:28:26.819Z,35.70
2023-03-16T12:31:31.919Z,34.80
2023-03-16T12:34:25.635Z,34.40
2023-03-16T12:37:02.769Z,35.90
2023-03-16T12:39:51.606Z,36.80
2023-03-16T12:42:56.788Z,36.10
2023-03-16T12:46:18.633Z,35.30
2023-03-16T12:48:56.651Z,34.80
2023-03-16T12:51:43.126Z,34.30
2023-03-16T12:54:25.535Z,32.20
2023-03-16T12:57:16.989Z,34.10
2023-03-16T12:59:52.403Z,34.90
2023-03-16T13:02:31.362Z,34.70
2023-03-16T13:05:10.818Z,34.80
2023-03-16T13:07:52.221Z,33.20
2023-03-16T13:10:24.104Z,32.60
2023-03-16T13:12:51.457Z,33.10
2023-03-16T13:15:22.175Z,33.60
2023-03-16T13:18:09.597Z,34.60
2023-03-16T13:21:02.310Z,34.50
2023-03-16T13:24:12.073Z,35.20
2023-03-16T13:26:55.600Z,32.70
2023-03-16T13:29:28.773Z,34.70
2023-03-16T13:32:03.091Z,34.00
2023-03-16T13:34:39.957Z,30.30
2023-03-16T13:37:18.203Z,33.70
2023-03-16T13:40:01.804Z,34.00
2023-03-16T13:42:36.270Z,34.00
2023-03-16T13:45:23.152Z,33.90
2023-03-16T13:47:51.837Z,32.60
2023-03-16T13:50:20.924Z,32.90
2023-03-16T13:53:06.620Z,32.30
2023-03-16T13:55:37.855Z,32.70
2023-03-16T13:58:06.020Z,32.80
2023-03-16T14:00:38.068Z,33.00
2023-03-16T14:03:23.975Z,32.60
2023-03-16T14:05:51.162Z,31.70
2023-03-16T14:08:24.810Z,30.20
2023-03-16T14:10:59.811Z,30.10
2023-03-16T14:13:36.159Z,29.60
2023-03-16T14:16:18.068Z,30.10
2023-03-16T14:18:57.663Z,30.20
2023-03-16T14:21:34.407Z,30.40
2023-03-16T14:24:07.732Z,29.90
2023-03-16T14:26:46.483Z,30.00
2023-03-16T14:29:31.007Z,29.70
2023-03-16T14:32:04.524Z,30.60
2023-03-16T14:34:41.040Z,31.30
2023-03-16T14:37:19.273Z,31.40
2023-03-16T14:40:02.329Z,31.30
2023-03-16T14:42:32.259Z,31.40
2023-03-16T14:45:12.354Z,31.30
2023-03-16T14:47:46.184Z,31.30
2023-03-16T14:50:25.195Z,31.90
2023-03-16T14:52:56.693Z,31.20
2023-03-16T14:55:26.074Z,31.50
2023-03-16T14:57:53.776Z,30.90
2023-03-16T15:00:23.508Z,31.20
2023-03-16T15:03:12.779Z,31.10
2023-03-16T15:05:46.195Z,31.50
2023-03-16T15:08:32.378Z,31.30
2023-03-16T15:11:05.815Z,31.40
2023-03-16T15:13:42.202Z,29.90
2023-03-16T15:16:14.937Z,29.60
2023-03-16T15:18:43.082Z,30.00
2023-03-16T15:21:21.793Z,30.90
2023-03-16T15:23:49.872Z,31.20
2023-03-16T15:26:27.930Z,31.90
2023-03-16T15:28:57.528Z,31.50
2023-03-16T15:31:25.359Z,31.60
2023-03-16T15:33:52.530Z,32.30
2023-03-16T15:36:24.206Z,30.90
2023-03-16T15:38:55.483Z,29.60
2023-03-16T15:41:30.136Z,29.50
2023-03-16T15:44:00.932Z,30.00
2023-03-16T15:46:28.433Z,29.30
2023-03-16T15:48:55.404Z,29.50
2023-03-16T15:51:30.636Z,30.00
2023-03-16T15:54:06.858Z,29.50
2023-03-16T15:56:53.143Z,28.50
2023-03-16T15:59:24.071Z,28.50
2023-03-16T16:01:52.630Z,28.70
2023-03-16T16:04:25.082Z,29.20
2023-03-16T16:06:55.201Z,29.80
2023-03-16T16:09:23.245Z,30.40
2023-03-16T16:11:51.557Z,31.00
2023-03-16T16:14:26.587Z,30.90
2023-03-16T16:16:54.371Z,31.50
2023-03-16T16:19:21.550Z,31.90
2023-03-16T16:21:49.814Z,32.90
2023-03-16T16:24:19.686Z,33.40
2023-03-16T16:26:55.258Z,33.40
2023-03-16T16:29:31.825Z,33.20
2023-03-16T16:35:01.746Z,33.10
2023-03-16T16:37:30.868Z,33.20
2023-03-16T16:39:57.931Z,33.00
2023-03-16T16:42:25.100Z,33.70
2023-03-16T16:44:53.387Z,33.90
2023-03-16T16:47:24.114Z,34.20
2023-03-16T16:49:51.832Z,34.40
2023-03-16T16:52:19.791Z,34.70
2023-03-16T16:54:46.766Z,35.20
2023-03-16T16:57:20.603Z,34.80
2023-03-16T16:59:49.508Z,34.80
2023-03-16T17:02:32.713Z,35.10
2023-03-16T17:04:59.815Z,35.20
2023-03-16T17:07:27.216Z,34.70
2023-03-16T17:09:54.896Z,35.10
2023-03-16T17:12:24.901Z,35.90
2023-03-16T17:14:51.974Z,35.40
2023-03-16T17:17:19.274Z,35.60
2023-03-16T17:19:49.212Z,35.90
2023-03-16T17:22:28.479Z,36.40
2023-03-16T17:25:03.534Z,36.30
2023-03-16T17:27:33.046Z,36.90
2023-03-16T17:30:00.321Z,36.80
2023-03-16T17:32:27.684Z,37.00
2023-03-16T17:34:55.048Z,36.90
2023-03-16T17:37:26.457Z,36.90
2023-03-16T17:39:55.670Z,37.00
2023-03-16T17:42:26.576Z,37.20
2023-03-16T17:44:54.696Z,37.00
2023-03-16T17:47:31.059Z,36.80
2023-03-16T17:49:58.078Z,37.00
2023-03-16T17:52:29.320Z,37.20
2023-03-16T17:54:59.167Z,37.30
2023-03-16T17:57:34.123Z,36.80
2023-03-16T18:00:09.004Z,36.50
2023-03-16T18:03:14.150Z,36.00
2023-03-16T18:05:43.073Z,36.10
2023-03-16T18:08:33.416Z,35.80
2023-03-16T18:11:08.386Z,36.20
2023-03-16T18:13:41.576Z,36.50
2023-03-16T18:16:23.034Z,36.00
2023-03-16T18:18:55.106Z,36.20
2023-03-16T18:21:29.312Z,36.40
2023-03-16T18:23:56.980Z,36.30
2023-03-16T18:26:24.862Z,36.60
2023-03-16T18:28:53.606Z,36.10
2023-03-16T18:31:28.787Z,36.10
2023-03-16T18:34:01.725Z,36.60
2023-03-16T18:36:37.723Z,36.40
2023-03-16T18:39:18.211Z,36.40
2023-03-16T18:41:46.852Z,36.50
2023-03-16T18:44:20.091Z,36.60
2023-03-16T18:46:49.997Z,36.80
2023-03-16T18:49:36.992Z,36.90
2023-03-16T18:52:20.608Z,37.10
2023-03-16T18:54:48.390Z,37.10
2023-03-16T18:57:22.974Z,37.40
2023-03-16T18:59:50.892Z,37.80
2023-03-16T19:02:38.938Z,38.00
2023-03-16T19:05:18.777Z,38.00
2023-03-16T19:07:51.831Z,38.10
2023-03-16T19:10:32.393Z,38.20
2023-03-16T19:12:59.959Z,38.50
2023-03-16T19:15:32.661Z,38.50
2023-03-16T19:18:00.315Z,38.60
2023-03-16T19:20:33.207Z,38.50
2023-03-16T19:23:26.223Z,38.50
2023-03-16T19:25:54.413Z,38.80
2023-03-16T19:28:34.780Z,38.70
2023-03-16T19:31:14.194Z,38.90
2023-03-16T19:33:41.735Z,38.90
2023-03-16T19:36:35.096Z,39.00
2023-03-16T19:39:03.185Z,39.30
2023-03-16T19:41:37.154Z,39.50
2023-03-16T19:44:20.052Z,40.40
2023-03-16T19:46:48.017Z,39.70
2023-03-16T19:49:28.326Z,40.00
2023-03-16T19:51:56.602Z,40.40
2023-03-16T19:54:33.930Z,40.80
2023-03-16T19:57:14.234Z,40.40
2023-03-16T19:59:49.338Z,40.80
2023-03-16T20:02:42.847Z,41.80
2023-03-16T20:05:20.693Z,41.20
2023-03-16T20:07:48.955Z,41.40
2023-03-16T20:10:26.329Z,41.50
2023-03-16T20:12:58.679Z,42.00
2023-03-16T20:15:33.584Z,42.20
2023-03-16T20:18:00.896Z,42.40
2023-03-16T20:20:37.817Z,42.70
2023-03-16T20:23:23.013Z,42.90
2023-03-16T20:26:01.424Z,43.20
2023-03-16T20:28:38.018Z,43.50
2023-03-16T20:31:25.498Z,43.70
2023-03-16T20:33:53.999Z,44.00
2023-03-16T20:36:26.895Z,44.00
2023-03-16T20:38:53.876Z,44.20
2023-03-16T20:41:32.805Z,44.60
2023-03-16T20:44:02.052Z,44.60
2023-03-16T20:46:33.034Z,44.90
2023-03-16T20:49:00.691Z,45.30
2023-03-16T20:51:28.826Z,45.50
2023-03-16T20:53:58.822Z,45.80
2023-03-16T20:56:27.979Z,46.10
2023-03-16T20:58:56.029Z,46.30
2023-03-16T21:04:23.527Z,46.70
2023-03-16T21:06:51.169Z,46.80
2023-03-16T21:09:22.784Z,46.90
2023-03-16T21:11:50.060Z,47.20
2023-03-16T21:14:23.687Z,47.60
2023-03-16T21:16:53.120Z,47.90
2023-03-16T21:19:23.977Z,48.80
2023-03-16T21:21:51.439Z,48.20
2023-03-16T21:24:18.554Z,48.40
2023-03-16T21:26:47.361Z,48.80
2023-03-16T21:29:21.986Z,49.60
2023-03-16T21:31:49.794Z,49.60
2023-03-16T21:34:30.126Z,49.10
2023-03-16T21:36:57.230Z,49.30
2023-03-16T21:39:25.150Z,49.50
2023-03-16T21:41:53.662Z,49.90
2023-03-16T21:44:21.264Z,50.80
2023-03-16T21:46:48.331Z,50.30
2023-03-16T21:49:16.162Z,50.80
2023-03-16T21:51:44.132Z,51.20
2023-03-16T21:54:16.949Z,51.10
2023-03-16T21:56:44.374Z,51.50
2023-03-16T21:59:12.250Z,51.80
2023-03-16T22:01:54.251Z,52.10
2023-03-16T22:04:26.167Z,52.40
2023-03-16T22:06:53.281Z,52.60
2023-03-16T22:09:22.597Z,52.80
2023-03-16T22:11:51.532Z,52.90
2023-03-16T22:14:18.512Z,53.10
2023-03-16T22:16:45.804Z,53.40
2023-03-16T22:19:17.889Z,53.50
2023-03-16T22:21:47.156Z,53.40
2023-03-16T22:24:34.884Z,53.80
2023-03-16T22:27:02.388Z,54.00
2023-03-16T22:29:36.551Z,54.20
2023-03-16T22:32:20.989Z,54.20
2023-03-16T22:34:57.684Z,54.20
2023-03-16T22:37:29.368Z,54.30
2023-03-16T22:39:58.355Z,54.50
2023-03-16T22:42:35.773Z,54.80
2023-03-16T22:45:14.261Z,54.80
2023-03-16T22:47:41.460Z,54.80
2023-03-16T22:50:16.543Z,54.90
2023-03-16T22:52:49.929Z,55.00
2023-03-16T22:55:28.043Z,54.90
2023-03-16T22:58:34.250Z,55.10
2023-03-16T23:01:16.730Z,55.20
2023-03-16T23:03:47.339Z,55.40
2023-03-16T23:06:29.607Z,55.60
2023-03-16T23:08:56.784Z,55.50
2023-03-16T23:11:34.299Z,55.60
2023-03-16T23:14:02.296Z,55.70
2023-03-16T23:16:38.861Z,56.00
2023-03-16T23:19:31.760Z,55.90
2023-03-16T23:22:06.571Z,56.10
2023-03-16T23:24:35.029Z,56.30
2023-03-16T23:27:04.445Z,56.50
2023-03-16T23:29:31.893Z,56.60
2023-03-16T23:31:58.965Z,56.70
2023-03-16T23:34:26.373Z,56.80
2023-03-16T23:36:54.003Z,57.00
2023-03-16T23:39:20.884Z,57.00
2023-03-16T23:41:50.657Z,57.40
2023-03-16T23:44:25.640Z,57.30
2023-03-16T23:46:53.881Z,57.50
2023-03-16T23:49:28.940Z,57.60
2023-03-16T23:51:59.569Z,57.60
2023-03-16T23:54:31.767Z,57.90
2023-03-16T23:56:59.219Z,57.90
2023-03-16T23:59:27.635Z,57.90
